Time;durP1;ratioP1;P1;durP2;ratioP2;P2;SDS_P1;SDS_P2;PMS_P1;PMS_P2;Temp;Humidity;BMP_temperature;BMP_pressure;BME280_temperature;BME280_humidity;BME280_pressure;Samples;Min_cycle;Max_cycle;Signal;HPM_P1;HPM_P2
2022/11/09 00:00:05;;;;;;;5.47;3.70;;;;;;;13.69;91.64;100016.84;4918774;29;20083;-80
2022/11/09 00:02:31;;;;;;;7.55;4.07;;;;;;;13.75;91.41;100017.88;4918304;29;20130;-79
2022/11/09 00:04:58;;;;;;;5.78;3.97;;;;;;;13.72;91.37;100018.25;4920288;29;20156;-80
2022/11/09 00:07:26;;;;;;;7.20;3.50;;;;;;;13.75;91.19;100017.88;4919243;29;20162;-79
2022/11/09 00:09:52;;;;;;;7.95;3.70;;;;;;;13.77;90.81;100015.88;4918641;29;20131;-79
2022/11/09 00:12:19;;;;;;;7.25;3.60;;;;;;;13.73;90.85;100012.81;4919810;29;20082;-78
2022/11/09 00:14:45;;;;;;;6.63;3.63;;;;;;;13.69;90.98;100013.41;4919840;29;20047;-79
2022/11/09 00:17:12;;;;;;;4.57;3.42;;;;;;;13.65;91.05;100025.31;4917347;29;20139;-78
2022/11/09 00:19:41;;;;;;;6.25;3.40;;;;;;;13.57;91.46;100021.00;4916529;29;20083;-79
2022/11/09 00:22:08;;;;;;;8.43;3.55;;;;;;;13.60;91.59;100021.44;4916638;29;20139;-79
2022/11/09 00:24:36;;;;;;;4.85;3.40;;;;;;;13.53;91.45;100014.50;4916656;29;20047;-78
2022/11/09 00:27:02;;;;;;;5.55;3.70;;;;;;;13.56;91.43;100022.81;4916469;29;20621;-78
2022/11/09 00:29:29;;;;;;;7.95;3.70;;;;;;;13.54;91.71;100016.94;4917035;29;20087;-78
2022/11/09 00:31:55;;;;;;;5.38;3.63;;;;;;;13.56;91.35;100009.66;4916249;29;20575;-77
2022/11/09 00:34:22;;;;;;;4.43;3.20;;;;;;;13.54;91.29;100011.69;4915821;29;20147;-77
2022/11/09 00:36:49;;;;;;;4.40;3.20;;;;;;;13.47;91.68;100021.31;4915790;29;20138;-78
2022/11/09 00:39:15;;;;;;;5.78;3.83;;;;;;;13.52;91.42;100000.53;4915312;29;20283;-77
2022/11/09 00:41:43;;;;;;;6.10;3.80;;;;;;;13.55;91.16;100007.22;4915116;29;20086;-79
2022/11/09 00:44:10;;;;;;;5.95;3.60;;;;;;;13.49;91.42;100014.06;4915901;29;20052;-79
2022/11/09 00:46:36;;;;;;;5.18;3.50;;;;;;;13.50;91.19;100020.13;4915201;29;20144;-79
2022/11/09 00:49:03;;;;;;;4.60;3.47;;;;;;;13.46;91.38;100017.06;4915435;29;20559;-78
2022/11/09 00:51:30;;;;;;;4.60;3.50;;;;;;;13.39;91.47;100021.44;4919138;29;20056;-79
2022/11/09 00:53:57;;;;;;;4.38;3.40;;;;;;;13.33;91.79;100014.31;4920912;29;20161;-81
2022/11/09 00:56:24;;;;;;;6.85;3.78;;;;;;;13.31;92.05;100005.81;4921082;29;20135;-80
2022/11/09 00:58:55;;;;;;;4.28;3.22;;;;;;;13.31;91.64;100007.63;4921667;29;20547;-81
2022/11/09 01:01:22;;;;;;;5.70;3.30;;;;;;;13.28;91.29;100016.69;4919004;29;20060;-78
2022/11/09 01:03:49;;;;;;;5.63;3.30;;;;;;;13.21;91.64;100016.66;4915917;29;20138;-78
2022/11/09 01:06:17;;;;;;;4.75;3.08;;;;;;;13.15;91.84;100013.94;4915405;29;20138;-78
2022/11/09 01:08:44;;;;;;;6.22;3.40;;;;;;;13.19;91.66;100018.66;4918115;29;20083;-79
2022/11/09 01:11:12;;;;;;;6.18;3.63;;;;;;;13.14;91.48;100015.75;4918966;29;20076;-77
2022/11/09 01:13:39;;;;;;;4.63;2.85;;;;;;;13.19;91.32;100021.28;4920120;29;20059;-81
2022/11/09 01:16:10;;;;;;;4.07;3.00;;;;;;;13.23;90.70;100024.34;4921591;29;20080;-81
2022/11/09 01:18:37;;;;;;;6.00;3.00;;;;;;;13.20;90.43;100020.28;4919218;29;20143;-79
2022/11/09 01:21:06;;;;;;;4.35;2.65;;;;;;;13.18;90.45;100026.72;4918727;29;20166;-80
2022/11/09 01:23:39;;;;;;;3.03;2.75;;;;;;;13.13;90.30;100019.38;4918588;29;20475;-81
2022/11/09 01:26:07;;;;;;;6.35;3.30;;;;;;;13.16;90.49;100021.66;4919181;29;20491;-80
2022/11/09 01:28:35;;;;;;;5.10;2.50;;;;;;;13.17;90.17;100014.59;4916472;29;20467;-78
2022/11/09 01:31:02;;;;;;;6.85;3.03;;;;;;;13.10;90.46;100019.75;4917213;29;20078;-79
2022/11/09 01:33:30;;;;;;;4.35;3.28;;;;;;;13.05;90.77;100021.28;4916801;29;20418;-80
2022/11/09 01:36:02;;;;;;;7.55;3.53;;;;;;;13.11;90.56;100025.81;4917608;29;20136;-80
2022/11/09 01:38:29;;;;;;;4.77;2.93;;;;;;;13.06;90.73;100025.56;4919216;29;20051;-80
2022/11/09 01:40:55;;;;;;;6.45;2.83;;;;;;;13.04;90.66;100038.88;4917257;29;20080;-80
2022/11/09 01:43:23;;;;;;;3.95;2.63;;;;;;;13.04;90.55;100045.94;4918062;29;20103;-79
2022/11/09 01:45:53;;;;;;;5.22;2.78;;;;;;;13.09;90.43;100025.19;4917352;29;20072;-80
2022/11/09 01:48:26;;;;;;;6.13;2.65;;;;;;;13.04;90.47;100030.19;4917312;29;20048;-80
2022/11/09 01:50:58;;;;;;;5.82;2.70;;;;;;;13.03;90.72;100033.81;4917097;29;20063;-78
2022/11/09 01:53:29;;;;;;;7.88;3.20;;;;;;;12.98;91.00;100036.16;4916962;29;20187;-78
2022/11/09 01:56:00;;;;;;;6.00;2.70;;;;;;;13.02;90.76;100037.44;4916424;29;20138;-79
2022/11/09 01:58:32;;;;;;;5.70;3.72;;;;;;;13.05;90.42;100030.00;4914924;29;20070;-79
2022/11/09 02:01:00;;;;;;;5.03;2.85;;;;;;;13.04;90.33;100031.00;4915884;29;20082;-80
2022/11/09 02:03:31;;;;;;;5.32;3.00;;;;;;;12.99;90.46;100024.66;4918011;29;20060;-80
2022/11/09 02:06:03;;;;;;;5.88;2.92;;;;;;;13.00;90.59;100021.84;4917304;29;20493;-78
2022/11/09 02:08:29;;;;;;;5.38;3.08;;;;;;;13.05;90.48;100022.13;4916267;29;20495;-79
2022/11/09 02:11:04;;;;;;;6.32;3.10;;;;;;;12.99;90.33;100017.59;4916564;29;20098;-79
2022/11/09 02:13:33;;;;;;;6.10;3.72;;;;;;;12.96;90.53;100020.59;4916871;29;20176;-79
2022/11/09 02:16:00;;;;;;;6.50;2.78;;;;;;;12.92;90.80;100028.03;4916585;29;20048;-78
2022/11/09 02:18:27;;;;;;;5.97;3.03;;;;;;;12.88;91.07;100020.72;4916346;29;20059;-80
2022/11/09 02:20:57;;;;;;;8.68;3.20;;;;;;;12.78;91.35;100025.44;4917389;29;20082;-80
2022/11/09 02:23:26;;;;;;;4.28;2.85;;;;;;;12.87;91.49;100024.34;4916649;29;20082;-79
2022/11/09 02:25:56;;;;;;;5.50;3.20;;;;;;;12.96;90.89;100025.84;4916571;29;20434;-80
2022/11/09 02:28:25;;;;;;;5.30;3.00;;;;;;;12.88;90.93;100026.78;4916260;29;20515;-79
2022/11/09 02:30:54;;;;;;;7.15;3.08;;;;;;;12.85;91.22;100032.41;4916455;29;20429;-81
2022/11/09 02:33:21;;;;;;;6.28;2.97;;;;;;;12.81;91.29;100025.88;4916505;29;20127;-80
2022/11/09 02:35:48;;;;;;;6.30;3.15;;;;;;;12.77;91.36;100023.81;4917058;29;20135;-79
2022/11/09 02:38:16;;;;;;;7.03;3.00;;;;;;;12.73;91.54;100031.28;4916077;29;20139;-80
2022/11/09 02:40:46;;;;;;;8.95;3.40;;;;;;;12.70;91.50;100030.81;4917030;29;20056;-80
2022/11/09 02:43:16;;;;;;;7.18;2.80;;;;;;;12.64;91.85;100021.88;4915326;29;20055;-80
2022/11/09 02:45:43;;;;;;;7.25;3.42;;;;;;;12.58;91.98;100020.78;4915803;29;20127;-79
2022/11/09 02:48:10;;;;;;;5.97;2.88;;;;;;;12.57;92.30;100026.22;4915348;29;20139;-78
2022/11/09 02:50:36;;;;;;;5.68;2.92;;;;;;;12.52;92.41;100026.78;4916323;29;20084;-80
2022/11/09 02:53:03;;;;;;;5.85;3.13;;;;;;;12.48;92.53;100035.19;4915421;29;20048;-81
2022/11/09 02:55:31;;;;;;;7.13;2.72;;;;;;;12.43;92.92;100029.66;4916893;29;20078;-80
2022/11/09 02:57:58;;;;;;;5.47;2.83;;;;;;;12.36;93.49;100032.19;4917350;29;20199;-81
2022/11/09 03:00:25;;;;;;;7.55;3.35;;;;;;;12.36;93.58;100031.38;4915668;29;20540;-79
2022/11/09 03:02:51;;;;;;;6.00;3.13;;;;;;;12.36;93.75;100023.53;4914406;29;20075;-78
2022/11/09 03:05:18;;;;;;;5.60;3.10;;;;;;;12.37;94.13;100039.06;4917558;29;20103;-80
2022/11/09 03:07:44;;;;;;;5.90;3.00;;;;;;;12.50;93.55;100028.75;4921588;29;20048;-79
2022/11/09 03:10:11;;;;;;;7.03;3.60;;;;;;;12.54;93.49;100029.22;4921585;29;20094;-80
2022/11/09 03:12:39;;;;;;;7.22;3.08;;;;;;;12.60;93.33;100038.97;4921402;29;20115;-78
2022/11/09 03:15:08;;;;;;;6.93;2.92;;;;;;;12.66;92.96;100035.63;4919252;29;20083;-78
2022/11/09 03:17:35;;;;;;;8.57;3.97;;;;;;;12.76;92.40;100023.00;4919181;29;20163;-80
2022/11/09 03:20:02;;;;;;;6.28;2.97;;;;;;;12.77;92.48;100029.06;4918501;29;20084;-77
2022/11/09 03:22:29;;;;;;;7.13;2.97;;;;;;;12.89;92.18;100033.66;4918389;29;20048;-79
2022/11/09 03:24:55;;;;;;;5.03;3.28;;;;;;;12.94;92.08;100040.97;4919802;29;20135;-78
2022/11/09 03:27:22;;;;;;;5.47;2.95;;;;;;;12.92;92.06;100029.84;4919668;29;20107;-79
2022/11/09 03:29:50;;;;;;;7.22;3.10;;;;;;;12.95;91.72;100027.66;4919108;29;20132;-80
2022/11/09 03:32:17;;;;;;;5.03;3.33;;;;;;;13.03;91.77;100039.06;4919435;29;20048;-79
2022/11/09 03:34:43;;;;;;;7.25;3.03;;;;;;;13.01;91.62;100043.69;4920173;29;20136;-79
2022/11/09 03:37:10;;;;;;;6.05;2.55;;;;;;;13.05;91.78;100042.31;4919675;29;20087;-77
2022/11/09 03:39:36;;;;;;;6.20;2.70;;;;;;;13.10;91.70;100042.56;4917903;29;20470;-79
2022/11/09 03:42:03;;;;;;;6.50;2.88;;;;;;;13.19;91.50;100049.38;4919983;29;20091;-77
2022/11/09 03:44:30;;;;;;;9.20;3.15;;;;;;;13.19;91.41;100044.13;4919510;29;20055;-78
2022/11/09 03:46:58;;;;;;;7.85;3.00;;;;;;;13.22;91.21;100043.75;4917351;29;20154;-78
2022/11/09 03:49:25;;;;;;;8.18;3.47;;;;;;;13.20;90.92;100045.75;4916401;29;20425;-79
2022/11/09 03:51:51;;;;;;;4.47;2.80;;;;;;;13.16;91.09;100041.84;4916806;29;20151;-79
2022/11/09 03:54:18;;;;;;;5.80;3.05;;;;;;;13.13;91.42;100056.16;4917821;29;20056;-79
2022/11/09 03:56:45;;;;;;;6.57;3.38;;;;;;;13.12;91.75;100059.78;4918281;29;20104;-79
2022/11/09 03:59:11;;;;;;;7.28;3.00;;;;;;;13.09;91.97;100065.41;4919113;29;20090;-79
2022/11/09 04:01:38;;;;;;;5.03;2.95;;;;;;;13.09;92.20;100067.22;4918548;29;20059;-79
2022/11/09 04:04:06;;;;;;;4.95;2.80;;;;;;;13.09;92.04;100067.22;4919041;29;20048;-79
2022/11/09 04:06:33;;;;;;;7.03;2.92;;;;;;;13.17;91.94;100077.63;4919451;29;20467;-79
2022/11/09 04:08:59;;;;;;;6.63;3.05;;;;;;;13.19;91.62;100065.94;4919219;29;20084;-79
2022/11/09 04:11:26;;;;;;;6.80;3.13;;;;;;;13.22;91.58;100064.75;4920040;29;20483;-80
2022/11/09 04:13:53;;;;;;;5.50;2.95;;;;;;;13.21;91.38;100073.63;4922054;29;20087;-80
2022/11/09 04:16:19;;;;;;;7.55;3.10;;;;;;;13.25;91.28;100074.88;4924379;29;20551;-78
2022/11/09 04:18:46;;;;;;;7.75;3.15;;;;;;;13.28;91.01;100071.88;4924709;29;20082;-80
2022/11/09 04:21:14;;;;;;;4.07;2.42;;;;;;;13.26;91.00;100074.69;4927028;29;20056;-80
2022/11/09 04:23:41;;;;;;;4.75;2.83;;;;;;;13.20;91.00;100064.13;4923366;29;20092;-80
2022/11/09 04:26:07;;;;;;;7.90;2.90;;;;;;;13.20;90.68;100051.00;4922959;29;20136;-79
2022/11/09 04:28:34;;;;;;;6.03;3.10;;;;;;;13.24;90.96;100062.72;4922362;29;20087;-80
2022/11/09 04:31:01;;;;;;;4.20;3.15;;;;;;;13.21;91.13;100066.56;4921215;29;20086;-78
2022/11/09 04:33:28;;;;;;;6.50;3.40;;;;;;;13.25;90.87;100067.78;4924130;29;20139;-79
2022/11/09 04:35:55;;;;;;;5.30;3.15;;;;;;;13.22;91.14;100068.19;4925529;29;20604;-79
2022/11/09 04:38:23;;;;;;;5.55;3.10;;;;;;;13.21;91.29;100068.38;4922229;29;20052;-79
2022/11/09 04:40:49;;;;;;;7.05;3.33;;;;;;;13.22;91.53;100070.00;4917980;29;20515;-79
2022/11/09 04:43:16;;;;;;;7.35;3.28;;;;;;;13.21;91.43;100078.91;4919311;29;20117;-79
2022/11/09 04:45:43;;;;;;;6.50;3.00;;;;;;;13.25;91.57;100085.38;4919887;29;20044;-80
2022/11/09 04:48:10;;;;;;;6.47;3.30;;;;;;;13.20;91.59;100077.25;4919261;29;20661;-79
2022/11/09 04:50:37;;;;;;;8.15;2.95;;;;;;;13.25;91.80;100086.19;4919056;29;20202;-77
2022/11/09 04:53:09;;;;;;;5.97;3.15;;;;;;;13.21;92.09;100078.91;4918385;29;20094;-79
2022/11/09 04:55:37;;;;;;;6.43;3.20;;;;;;;13.20;91.90;100078.06;4920806;29;20059;-78
2022/11/09 04:58:04;;;;;;;6.80;3.17;;;;;;;13.21;91.88;100086.78;4921907;29;20139;-79
2022/11/09 05:00:31;;;;;;;7.93;3.25;;;;;;;13.22;91.48;100075.25;4920281;29;20167;-79
2022/11/09 05:03:00;;;;;;;7.03;3.30;;;;;;;13.18;92.39;100079.25;4922764;29;20139;-81
2022/11/09 05:05:27;;;;;;;8.10;3.78;;;;;;;13.13;93.55;100090.28;4923909;29;20048;-81
2022/11/09 05:07:56;;;;;;;5.43;3.17;;;;;;;13.10;93.89;100092.47;4923332;29;20135;-78
2022/11/09 05:10:23;;;;;;;8.27;2.75;;;;;;;13.06;94.18;100084.16;4905392;29;20083;-79
2022/11/09 05:12:57;;;;;;;6.90;3.28;;;;;;;13.03;94.17;100086.34;4905205;29;20088;-81
2022/11/09 05:15:24;;;;;;;6.35;3.42;;;;;;;13.01;94.44;100081.25;4905794;29;20080;-81
2022/11/09 05:17:53;;;;;;;5.00;2.78;;;;;;;13.00;94.47;100078.81;4922384;29;20140;-78
2022/11/09 05:20:20;;;;;;;7.72;3.20;;;;;;;12.96;94.89;100086.25;4922968;29;20052;-82
2022/11/09 05:25:31;;;;;;;8.27;3.40;;;;;;;12.98;94.78;100093.94;4922176;29;20063;-78
2022/11/09 05:27:59;;;;;;;6.40;2.88;;;;;;;12.92;94.78;100079.72;4922290;29;20153;-81
2022/11/09 05:30:26;;;;;;;7.60;3.47;;;;;;;12.92;94.85;100079.72;4921353;29;20087;-81
2022/11/09 05:32:52;;;;;;;7.60;3.40;;;;;;;12.92;95.04;100085.81;4924466;29;20549;-80
2022/11/09 05:35:19;;;;;;;10.38;3.28;;;;;;;12.90;94.86;100086.97;4925048;29;20076;-80
2022/11/09 05:37:47;;;;;;;6.95;3.13;;;;;;;12.93;94.45;100086.63;4925167;29;20079;-80
2022/11/09 05:40:15;;;;;;;8.93;3.55;;;;;;;12.89;94.47;100083.53;4925097;29;20063;-79
2022/11/09 05:42:42;;;;;;;6.93;3.10;;;;;;;12.87;94.70;100087.34;4920669;29;20063;-79
2022/11/09 05:45:12;;;;;;;7.63;2.95;;;;;;;12.86;94.81;100091.78;4919770;29;20049;-79
2022/11/09 05:47:39;;;;;;;9.30;3.50;;;;;;;12.87;94.96;100093.41;4920151;29;20511;-80
2022/11/09 05:50:08;;;;;;;6.55;2.72;;;;;;;12.94;95.44;100096.94;4918330;29;20076;-79
2022/11/09 05:52:35;;;;;;;4.22;2.67;;;;;;;12.86;96.66;100107.53;4919355;29;20098;-79
2022/11/09 05:55:02;;;;;;;8.20;3.05;;;;;;;12.78;98.63;100119.94;4919437;29;20496;-80
2022/11/09 05:57:29;;;;;;;7.47;3.22;;;;;;;12.56;100.00;100106.75;4918944;29;20107;-79
2022/11/09 05:59:55;;;;;;;6.63;3.10;;;;;;;12.46;100.00;100113.28;4917736;29;20143;-79
2022/11/09 06:02:24;;;;;;;10.20;3.33;;;;;;;12.24;100.00;100121.06;4917519;29;20135;-81
2022/11/09 06:04:50;;;;;;;10.23;3.55;;;;;;;12.12;100.00;100111.16;4922139;29;20139;-80
2022/11/09 06:07:17;;;;;;;12.18;4.00;;;;;;;12.04;100.00;100130.41;4922490;29;20056;-81
2022/11/09 06:09:44;;;;;;;10.00;3.38;;;;;;;12.00;100.00;100131.75;4922031;29;20086;-79
2022/11/09 06:12:10;;;;;;;6.85;3.20;;;;;;;12.01;100.00;100136.00;4920481;29;20063;-82
2022/11/09 06:14:37;;;;;;;10.65;3.60;;;;;;;12.01;100.00;100137.81;4919147;29;20048;-77
2022/11/09 06:17:04;;;;;;;10.50;3.30;;;;;;;11.96;100.00;100131.28;4920522;29;20503;-80
2022/11/09 06:19:32;;;;;;;6.68;2.90;;;;;;;12.01;100.00;100130.75;4921895;29;20048;-81
2022/11/09 06:21:58;;;;;;;6.72;3.50;;;;;;;11.96;100.00;100115.56;4920849;29;20092;-79
2022/11/09 06:24:25;;;;;;;10.70;3.00;;;;;;;11.97;100.00;100111.13;4920009;29;20545;-79
2022/11/09 06:26:51;;;;;;;8.20;3.10;;;;;;;11.96;100.00;100104.25;4920985;29;20084;-82
2022/11/09 06:29:18;;;;;;;7.43;2.97;;;;;;;11.89;100.00;100105.97;4918805;29;20075;-79
2022/11/09 06:31:46;;;;;;;5.90;3.10;;;;;;;11.86;100.00;100120.22;4915976;29;20083;-79
2022/11/09 06:34:13;;;;;;;4.97;2.72;;;;;;;11.79;100.00;100113.28;4915154;29;20527;-79
2022/11/09 06:36:41;;;;;;;4.25;2.75;;;;;;;11.76;100.00;100124.06;4920488;29;20107;-80
2022/11/09 06:39:07;;;;;;;5.72;2.65;;;;;;;11.69;100.00;100120.53;4922589;29;20523;-82
2022/11/09 06:41:34;;;;;;;5.32;2.55;;;;;;;11.64;100.00;100121.88;4927045;29;20084;-81
2022/11/09 06:44:01;;;;;;;6.38;2.60;;;;;;;11.70;100.00;100120.34;4924090;29;20090;-80
2022/11/09 06:46:28;;;;;;;5.28;2.38;;;;;;;11.72;100.00;100122.78;4924443;29;20044;-82
2022/11/09 06:48:54;;;;;;;8.48;2.50;;;;;;;11.70;100.00;100124.78;4925275;29;20087;-79
2022/11/09 06:51:21;;;;;;;8.00;3.00;;;;;;;11.64;100.00;100147.25;4921101;29;20087;-80
2022/11/09 06:53:49;;;;;;;8.50;2.63;;;;;;;11.63;100.00;100151.69;4920796;29;20079;-80
2022/11/09 06:56:16;;;;;;;7.68;3.13;;;;;;;11.71;100.00;100163.09;4920628;29;20131;-80
2022/11/09 06:58:44;;;;;;;7.35;2.70;;;;;;;11.74;100.00;100168.00;4920373;29;20330;-79
2022/11/09 07:01:16;;;;;;;5.32;2.50;;;;;;;11.73;100.00;100158.50;4920733;29;20130;-81
2022/11/09 07:03:42;;;;;;;6.93;2.90;;;;;;;11.76;100.00;100158.16;4922387;29;20080;-80
2022/11/09 07:06:12;;;;;;;8.05;2.95;;;;;;;11.67;100.00;100161.81;4923830;29;20048;-79
2022/11/09 07:08:39;;;;;;;5.15;2.42;;;;;;;11.68;100.00;100164.25;4923555;29;20139;-80
2022/11/09 07:11:10;;;;;;;5.00;2.63;;;;;;;11.64;100.00;100162.97;4924808;29;20131;-81
2022/11/09 07:13:37;;;;;;;6.63;2.70;;;;;;;11.57;100.00;100165.47;4925307;29;20062;-80
2022/11/09 07:16:04;;;;;;;7.53;3.20;;;;;;;11.50;100.00;100169.78;4925532;29;20083;-80
2022/11/09 07:18:31;;;;;;;7.07;3.47;;;;;;;11.54;100.00;100173.69;4921235;29;20183;-80
2022/11/09 07:20:57;;;;;;;8.35;3.25;;;;;;;11.48;100.00;100173.56;4922790;29;20554;-79
2022/11/09 07:23:24;;;;;;;5.70;2.95;;;;;;;11.49;100.00;100181.25;4919124;29;20083;-78
2022/11/09 07:25:51;;;;;;;6.57;2.85;;;;;;;11.48;100.00;100187.47;4949898;23;20052;-78
2022/11/09 07:28:19;;;;;;;8.73;3.95;;;;;;;11.60;100.00;100186.09;4927316;29;20059;-79
2022/11/09 07:30:49;;;;;;;6.95;3.30;;;;;;;11.74;100.00;100183.72;4926289;29;20486;-79
2022/11/09 07:33:17;;;;;;;8.88;3.20;;;;;;;11.93;100.00;100199.00;4930972;29;20464;-79
2022/11/09 07:35:44;;;;;;;6.97;3.40;;;;;;;11.81;100.00;100187.31;4927314;29;20048;-78
2022/11/09 07:38:11;;;;;;;8.02;3.38;;;;;;;11.67;100.00;100188.03;4928093;29;20068;-79
2022/11/09 07:40:38;;;;;;;8.20;3.53;;;;;;;11.57;100.00;100183.81;4929808;29;20076;-79
2022/11/09 07:43:06;;;;;;;7.53;3.72;;;;;;;11.46;100.00;100192.06;4929463;29;20143;-79
2022/11/09 07:45:35;;;;;;;13.90;4.40;;;;;;;11.37;100.00;100190.47;4928116;29;20064;-80
2022/11/09 07:48:04;;;;;;;11.40;4.47;;;;;;;11.36;100.00;100196.69;4929252;29;20076;-79
2022/11/09 07:50:32;;;;;;;27.17;14.93;;;;;;;11.40;100.00;100213.72;4928040;29;20048;-79
2022/11/09 07:53:00;;;;;;;46.45;30.42;;;;;;;11.41;100.00;100209.28;4931142;29;20052;-80
2022/11/09 07:55:27;;;;;;;18.10;10.00;;;;;;;11.45;100.00;100207.94;4930887;29;20107;-81
2022/11/09 07:57:58;;;;;;;8.90;4.45;;;;;;;11.55;100.00;100212.00;4930149;29;20067;-80
2022/11/09 08:00:25;;;;;;;12.85;8.85;;;;;;;11.62;100.00;100212.94;4924415;29;20071;-79
2022/11/09 08:02:53;;;;;;;8.25;4.93;;;;;;;11.68;100.00;100208.00;4924148;29;20134;-79
2022/11/09 08:05:20;;;;;;;53.38;32.22;;;;;;;11.86;100.00;100219.03;4924502;29;20087;-79
2022/11/09 08:07:47;;;;;;;27.08;17.23;;;;;;;12.03;100.00;100220.56;4923959;29;20150;-79
2022/11/09 08:10:14;;;;;;;19.52;10.95;;;;;;;12.39;100.00;100215.50;4923343;29;20056;-78
2022/11/09 08:12:41;;;;;;;9.98;4.00;;;;;;;12.39;100.00;100215.50;4924581;29;20086;-78
2022/11/09 08:15:08;;;;;;;9.70;4.13;;;;;;;12.32;100.00;100204.09;4923637;29;20052;-78
2022/11/09 08:17:35;;;;;;;13.80;4.15;;;;;;;12.35;100.00;100214.22;4924791;29;20095;-78
2022/11/09 08:20:03;;;;;;;14.38;6.05;;;;;;;12.42;100.00;100214.34;4924547;29;20056;-78
2022/11/09 08:22:29;;;;;;;15.23;10.80;;;;;;;12.48;100.00;100218.88;4924566;29;20148;-78
2022/11/09 08:24:56;;;;;;;13.60;4.20;;;;;;;12.51;100.00;100223.78;4927020;29;20138;-79
2022/11/09 08:27:23;;;;;;;16.65;8.07;;;;;;;12.60;100.00;100217.47;4928693;29;20052;-80
2022/11/09 08:29:49;;;;;;;16.60;5.07;;;;;;;12.64;100.00;100213.47;4928410;29;20492;-79
2022/11/09 08:32:16;;;;;;;43.13;22.88;;;;;;;12.70;100.00;100217.19;4927648;29;20051;-79
2022/11/09 08:34:46;;;;;;;20.90;11.32;;;;;;;12.87;100.00;100218.63;4928306;29;20052;-79
2022/11/09 08:37:15;;;;;;;9.20;4.22;;;;;;;12.92;100.00;100221.53;4928952;29;20075;-78
2022/11/09 08:39:41;;;;;;;8.25;4.50;;;;;;;12.98;100.00;100225.25;4916743;29;20430;-78
2022/11/09 08:42:08;;;;;;;9.60;6.47;;;;;;;13.05;100.00;100234.03;4916744;29;20155;-79
2022/11/09 08:44:35;;;;;;;6.57;4.50;;;;;;;13.09;100.00;100233.50;4916039;29;20058;-78
2022/11/09 08:47:01;;;;;;;7.60;3.72;;;;;;;12.92;100.00;100235.50;4916442;29;20044;-78
2022/11/09 08:49:28;;;;;;;5.80;3.30;;;;;;;12.87;100.00;100235.22;4915533;29;20116;-78
2022/11/09 08:51:55;;;;;;;6.28;3.70;;;;;;;12.84;100.00;100225.06;4916528;29;20115;-78
2022/11/09 08:54:23;;;;;;;7.60;3.83;;;;;;;12.90;100.00;100228.78;4915926;29;20135;-79
2022/11/09 08:56:49;;;;;;;8.00;3.92;;;;;;;13.01;100.00;100235.41;4915539;29;20079;-78
2022/11/09 08:59:16;;;;;;;6.80;3.70;;;;;;;13.09;100.00;100232.69;4914860;29;20059;-79
2022/11/09 09:01:42;;;;;;;8.18;3.60;;;;;;;13.13;100.00;100239.22;4914762;29;20430;-78
2022/11/09 09:04:09;;;;;;;9.70;4.20;;;;;;;13.21;100.00;100237.34;4915812;29;20143;-78
2022/11/09 09:06:36;;;;;;;9.02;3.30;;;;;;;13.31;100.00;100244.91;4916472;29;20430;-78
2022/11/09 09:09:02;;;;;;;12.35;4.10;;;;;;;13.40;100.00;100235.94;4916001;29;20439;-78
2022/11/09 09:11:30;;;;;;;13.93;4.38;;;;;;;13.53;100.00;100238.72;4916783;29;20147;-78
2022/11/09 09:13:57;;;;;;;7.55;3.50;;;;;;;13.60;99.42;100237.00;4916511;29;20056;-79
2022/11/09 09:16:24;;;;;;;12.45;2.97;;;;;;;13.61;99.04;100238.63;4915770;29;20579;-77
2022/11/09 09:18:51;;;;;;;6.18;2.72;;;;;;;13.63;98.55;100240.25;4919026;29;20116;-79
2022/11/09 09:21:18;;;;;;;9.80;3.08;;;;;;;13.64;97.83;100242.69;4922862;29;20400;-78
2022/11/09 09:23:47;;;;;;;8.40;3.10;;;;;;;13.69;97.52;100242.16;4916660;29;20052;-78
2022/11/09 09:26:13;;;;;;;6.80;3.10;;;;;;;13.63;97.46;100245.50;4915990;29;20048;-77
2022/11/09 09:28:41;;;;;;;7.55;3.00;;;;;;;13.63;97.42;100241.06;4916068;29;20138;-77
2022/11/09 09:31:08;;;;;;;6.38;3.13;;;;;;;13.67;96.74;100250.22;4915990;29;20052;-78
2022/11/09 09:33:35;;;;;;;6.88;3.00;;;;;;;13.69;96.93;100250.03;4916522;29;20143;-77
2022/11/09 09:36:02;;;;;;;6.00;3.00;;;;;;;13.70;96.91;100257.75;4914522;29;20048;-77
2022/11/09 09:38:29;;;;;;;5.88;2.92;;;;;;;13.75;96.43;100254.53;4916010;29;20562;-79
2022/11/09 09:40:58;;;;;;;6.60;3.03;;;;;;;13.67;96.73;100254.66;4915496;29;20048;-78
2022/11/09 09:43:30;;;;;;;6.70;2.90;;;;;;;13.73;96.17;100261.78;4915189;29;20048;-77
2022/11/09 09:46:00;;;;;;;5.13;2.42;;;;;;;13.76;95.18;100264.03;4914667;29;20043;-78
2022/11/09 09:48:35;;;;;;;5.03;2.67;;;;;;;13.82;94.81;100265.94;4911805;29;20483;-78
2022/11/09 09:51:09;;;;;;;3.78;2.40;;;;;;;13.86;93.92;100275.09;4914721;29;20048;-76
2022/11/09 09:53:43;;;;;;;5.88;2.83;;;;;;;13.99;93.03;100283.13;4913794;29;20135;-78
2022/11/09 09:56:14;;;;;;;5.93;2.40;;;;;;;13.97;91.45;100290.38;4912874;29;20064;-76
2022/11/09 09:58:45;;;;;;;5.72;2.70;;;;;;;13.99;89.25;100293.66;4915151;29;20142;-77
2022/11/09 10:01:18;;;;;;;9.38;3.00;;;;;;;13.92;89.64;100292.75;4907276;29;20048;-77
2022/11/09 10:03:45;;;;;;;;;;;;;;;13.94;88.60;100301.28;4915625;29;20048;-76
2022/11/09 10:06:30;;;;;;;4.15;2.55;;;;;;;13.88;88.97;100288.88;4914780;29;20410;-78
2022/11/09 10:09:11;;;;;;;5.07;2.50;;;;;;;13.86;89.07;100296.13;4913723;29;20048;-76
2022/11/09 10:11:46;;;;;;;3.72;2.38;;;;;;;13.80;88.68;100295.06;4913470;29;20064;-77
2022/11/09 10:14:29;;;;;;;8.07;2.88;;;;;;;13.93;88.02;100297.03;4914339;29;20052;-77
2022/11/09 10:17:07;;;;;;;8.65;3.22;;;;;;;13.98;86.67;100293.84;4918222;29;20506;-77
2022/11/09 10:19:48;;;;;;;7.95;2.83;;;;;;;14.04;85.69;100303.63;4918676;29;20134;-77
2022/11/09 10:22:23;;;;;;;5.93;2.40;;;;;;;14.14;85.53;100301.50;4918722;29;20143;-77
2022/11/09 10:24:55;;;;;;;5.20;2.35;;;;;;;14.23;83.98;100295.91;4917251;29;20123;-76
2022/11/09 10:27:27;;;;;;;7.20;2.53;;;;;;;14.28;83.37;100293.53;4918326;29;20136;-77
2022/11/09 10:29:54;;;;;;;8.65;2.28;;;;;;;14.41;82.77;100302.56;4918413;29;20419;-78
2022/11/09 10:32:23;;;;;;;5.35;2.42;;;;;;;14.37;82.21;100302.13;4919083;29;20072;-77
2022/11/09 10:34:54;;;;;;;7.95;2.85;;;;;;;14.44;83.36;100308.28;4916779;29;20111;-77
2022/11/09 10:37:26;;;;;;;4.70;2.65;;;;;;;14.53;82.44;100307.16;4919047;29;20054;-77
2022/11/09 10:40:03;;;;;;;7.63;2.72;;;;;;;14.49;81.82;100315.63;4919354;29;20472;-78
2022/11/09 10:42:30;;;;;;;10.82;2.78;;;;;;;14.53;80.90;100317.69;4920918;29;20091;-78
2022/11/09 10:44:58;;;;;;;5.15;2.53;;;;;;;14.64;81.17;100318.19;4919968;29;20346;-79
2022/11/09 10:47:26;;;;;;;5.80;2.53;;;;;;;14.67;79.78;100321.22;4921708;29;20044;-79
2022/11/09 10:50:07;;;;;;;3.88;2.15;;;;;;;14.66;80.08;100316.16;4919349;29;20126;-77
2022/11/09 10:52:39;;;;;;;7.82;2.45;;;;;;;14.78;80.08;100318.09;4932228;29;20166;-79
2022/11/09 10:55:26;;;;;;;5.43;2.60;;;;;;;14.81;79.62;100320.34;4927720;29;20079;-80
2022/11/09 10:57:59;;;;;;;4.35;2.20;;;;;;;14.76;79.57;100316.66;4922123;29;20074;-79
2022/11/09 11:00:27;;;;;;;5.63;2.53;;;;;;;14.82;79.46;100321.97;4936392;29;20062;-79
2022/11/09 11:02:58;;;;;;;6.25;2.63;;;;;;;14.78;79.58;100325.19;4934387;29;20072;-78
2022/11/09 11:05:34;;;;;;;7.57;2.58;;;;;;;14.80;78.85;100328.44;4930216;29;20051;-80
2022/11/09 11:08:21;;;;;;;6.65;2.72;;;;;;;14.93;78.58;100324.09;4921393;29;20097;-80
2022/11/09 11:10:48;;;;;;;5.05;2.53;;;;;;;15.00;77.77;100316.25;4917403;29;20082;-80
2022/11/09 11:13:24;;;;;;;9.15;2.50;;;;;;;15.01;76.57;100317.06;4921278;29;20088;-78
2022/11/09 11:15:51;;;;;;;8.02;2.45;;;;;;;15.13;76.01;100318.13;4918236;29;20059;-78
2022/11/09 11:18:25;;;;;;;7.50;2.83;;;;;;;15.12;75.55;100314.69;4919849;29;20135;-78
2022/11/09 11:21:14;;;;;;;8.50;2.50;;;;;;;15.10;75.18;100313.25;4920506;29;20040;-78
2022/11/09 11:23:40;;;;;;;7.40;2.75;;;;;;;15.00;75.36;100307.53;4918951;29;20442;-79
2022/11/09 11:26:27;;;;;;;5.72;2.47;;;;;;;14.97;76.41;100310.53;4918514;29;20484;-77
2022/11/09 11:29:00;;;;;;;8.40;2.83;;;;;;;14.79;75.08;100308.38;4919593;29;20442;-78